This is the latest recevied weather packets stored in our database for station/object R1ZCU-14. If no packets are shown the sender has not sent any weather packets the latest 1 day(s).
| Time | Temp. | Humidity | Pressure | Rain* | Wind** | Luminosity | Snow |
|---|---|---|---|---|---|---|---|
| 1778093471 | 2.22° C | 68% | 1003.5 hPa | - | - | - | - |
| 1778092270 | 2.78° C | 65% | 1003.3 hPa | - | - | - | - |
| 1778089868 | 3.33° C | 59% | 1003.1 hPa | - | - | - | - |
| 1778082062 | 5.56° C | 51% | 1002.2 hPa | - | - | - | - |
| 1778079660 | 5.56° C | 48% | 1001.9 hPa | - | - | - | - |
| 1778077858 | 6.11° C | 46% | 1001.7 hPa | - | - | - | - |
| 1778076057 | 6.11° C | 48% | 1001.5 hPa | - | - | - | - |
| 1778075456 | 6.11° C | 50% | 1001.2 hPa | - | - | - | - |
| 1778073655 | 6.67° C | 48% | 1001.2 hPa | - | - | - | - |
| 1778072454 | 6.11° C | 49% | 1001.1 hPa | - | - | - | - |
| 1778071853 | 6.11° C | 48% | 1001 hPa | - | - | - | - |
| 1778070052 | 6.11° C | 51% | 1000.8 hPa | - | - | - | - |
| 1778067650 | 6.67° C | 49% | 1000.3 hPa | - | - | - | - |
| 1778066449 | 6.67° C | 50% | 100 hPa | - | - | - | - |
| 1778065848 | 6.11° C | 53% | 100 hPa | - | - | - | - |
| 1778065248 | 5.56° C | 57% | 100 hPa | - | - | - | - |
| 1778064047 | 6.11° C | 57% | 999.8 hPa | - | - | - | - |
| 1778062846 | 5° C | 70% | 999.8 hPa | - | - | - | - |
| 1778062245 | 5.56° C | 64% | 999.9 hPa | - | - | - | - |
| 1778061645 | 8.33° C | 44% | 999.3 hPa | - | - | - | - |
| 1778060444 | 6.67° C | 47% | 999.1 hPa | - | - | - | - |
| 1778059243 | 6.67° C | 47% | 999 hPa | - | - | - | - |
| 1778058642 | 8.89° C | 38% | 998.8 hPa | - | - | - | - |
| 1778058117 | 15.56° C | 25% | 998.4 hPa | - | - | - | - |
| 1778058042 | 16.67° C | 23% | 998.3 hPa | - | - | - | - |
* Rain since midnight (hover to see other rain measurements)
** Current wind speed in m/s (hover to see current wind gust speed)